Tottori, Japan

7:21 PM JST on September 02, 2015 (GMT +0900)
Tottori | | Change Station
CLOSE
Current Station
Airport
Location: Tottori Airport,
Elevation: 56 ft
Nearby Weather Stations

Elev 56 ft 35.53 °N, 134.16 °E | Updated 21 minutes ago

Partly Cloudy
Partly Cloudy
73 °F
Feels Like 73 °F
N
6
Wind Variable Wind from NE

Today
High -- | Low -- °F
--% Chance of Precip.
Yesterday
High -- | Low -- °F
Precip. -- in
5:35 AM 6:29 PM
Waning Gibbous, 81% visible
Pressure 29.89 in
Visibility 6.2 miles
Clouds Few 3000 ft
Dew Point 68 °F
Humidity 83%
Rainfall 0.00 in
Snow Depth Not available.
UV 0 out of 12
Pollen Not available.
Air Quality Not available.
Flu Activity Not available.
METAR RJOR 021000Z 05005KT 9999 FEW030 BKN/// 23/20 Q1012
Pressure 29.89 in
Visibility 6.2 miles
Clouds Few 3000 ft
Dew Point 68 °F
Humidity 83%
Rainfall 0.00 in
Snow Depth Not available.
UV 0 out of 12
Pollen Not available.
Air Quality Not available.
Flu Activity Not available.
METAR RJOR 021000Z 05005KT 9999 FEW030 BKN/// 23/20 Q1012

10-Day Weather Forecast

×

Almanac

Astronomy

Sep. 02, 2015 Rise Set
Actual Time
Civil Twilight
Nautical Twilight
Astronomical Twilight
Moon
Length of Visible Light
Length of Day
Tomorrow will be .
, % of the Moon is Illuminated

Today's Extremes

Country Highs Country Lows

Community

WunderPhotos

Upload Photos

1,851,734 photos uploaded!

WunderBlogs® & News

Nearby

Air Quality

  Air Quality AQ Index Pollutant
Not available.

Snow Depth

Station Depth Elevation

Earthquake Activity

City Distance Mag. Time & Date
Minimum magnitude displayed is 2.5.

Coastal Water Temperatures

Place Temperature

Stations

Nearby Weather Stations

Station Location Temp. Windchill Dew Point Humidity Wind Precip. Elev Updated Type